Terminal Aerodrome Forecast
Issued by NWS

Home | Current Version | Previous Version | Text Only | Print | Product List | Glossary On
Versions: 1 2 3 4 5 6 7 8 9 10 11 12 13 14
000
FTUS44 KOUN 301501 AAA
TAFGAG
TAF AMD
KGAG 301501Z 3015/3112 02005KT P6SM VCSH FEW015 BKN050
      TEMPO 3015/3017 16009KT 3SM -SHRA BKN015
     FM302100 01003KT P6SM BKN100
      TEMPO 3021/3101 P6SM TS BKN050CB=

USA.gov is the U.S. government's official web portal to all federal, state and local government web resources and services.